createdAt,value
2022-12-23T00:04:00.178Z,5.65
2022-12-23T00:06:29.983Z,5.63
2022-12-23T00:09:01.229Z,4.60
2022-12-23T00:11:30.711Z,4.87
2022-12-23T00:14:21.493Z,5.42
2022-12-23T00:19:19.002Z,4.37
2022-12-23T00:21:48.767Z,4.60
2022-12-23T00:24:18.310Z,4.22
2022-12-23T00:26:47.820Z,5.08
2022-12-23T00:29:17.268Z,4.60
2022-12-23T00:31:46.723Z,5.05
2022-12-23T00:34:17.779Z,5.22
2022-12-23T00:36:47.206Z,4.83
2022-12-23T00:39:38.089Z,4.47
2022-12-23T00:42:25.491Z,4.90
2022-12-23T00:44:56.590Z,4.53
2022-12-23T00:47:43.992Z,4.97
2022-12-23T00:50:13.469Z,4.92
2022-12-23T00:52:42.925Z,5.00
2022-12-23T00:55:12.352Z,4.75
2022-12-23T00:57:42.106Z,4.55
2022-12-23T01:00:12.209Z,4.92
2022-12-23T01:02:59.687Z,4.33
2022-12-23T01:05:38.566Z,5.05
2022-12-23T01:08:11.202Z,5.22
2022-12-23T01:10:42.453Z,4.72
2022-12-23T01:13:12.722Z,4.75
2022-12-23T01:15:42.140Z,5.00
2022-12-23T01:18:11.826Z,4.95
2022-12-23T01:20:42.168Z,4.90
2022-12-23T01:23:11.611Z,4.90
2022-12-23T01:25:41.046Z,4.90
2022-12-23T01:28:10.758Z,4.65
2022-12-23T01:30:40.179Z,4.95
2022-12-23T01:33:09.621Z,5.05
2022-12-23T01:35:39.500Z,4.78
2022-12-23T01:38:08.915Z,4.72
2022-12-23T01:40:43.986Z,4.65
2022-12-23T01:43:18.236Z,4.67
2022-12-23T01:45:48.333Z,4.87
2022-12-23T01:48:21.202Z,4.90
2022-12-23T01:50:56.381Z,4.75
2022-12-23T01:53:34.732Z,4.60
2022-12-23T01:56:07.218Z,4.83
2022-12-23T01:58:42.854Z,4.78
2022-12-23T02:01:30.809Z,5.08
2022-12-23T02:04:03.747Z,5.40
2022-12-23T02:06:57.373Z,5.58
2022-12-23T02:09:30.091Z,5.50
2022-12-23T02:12:08.579Z,6.17
2022-12-23T02:15:19.404Z,5.30
2022-12-23T02:17:51.883Z,5.80
2022-12-23T02:23:17.162Z,5.47
2022-12-23T02:25:52.211Z,5.95
2022-12-23T02:28:47.360Z,5.62
2022-12-23T02:31:53.199Z,5.22
2022-12-23T02:34:31.507Z,5.80
2022-12-23T02:37:10.162Z,5.30
2022-12-23T02:39:48.661Z,5.37
2022-12-23T02:42:20.941Z,5.42
2022-12-23T02:45:11.683Z,5.35
2022-12-23T02:47:47.165Z,5.25
2022-12-23T02:50:22.632Z,5.35
2022-12-23T02:52:53.691Z,5.42
2022-12-23T02:57:58.944Z,6.20
2022-12-23T03:00:28.613Z,6.20
2022-12-23T03:02:58.258Z,6.55
2022-12-23T03:05:39.674Z,6.50
2022-12-23T03:08:14.797Z,6.75
2022-12-23T03:11:05.096Z,7.12
2022-12-23T03:14:07.543Z,6.20
2022-12-23T03:16:56.208Z,6.92
2022-12-23T03:19:32.456Z,6.92
2022-12-23T03:22:20.022Z,6.47
2022-12-23T03:25:43.106Z,6.08
2022-12-23T03:28:18.237Z,7.53
2022-12-23T03:30:51.119Z,6.53
2022-12-23T03:33:26.583Z,6.40
2022-12-23T03:36:14.240Z,6.33
2022-12-23T03:38:46.252Z,6.40
2022-12-23T03:41:18.729Z,6.63
2022-12-23T03:43:51.608Z,6.67
2022-12-23T03:48:54.408Z,6.33
2022-12-23T03:51:26.919Z,6.78
2022-12-23T03:54:02.316Z,7.60
2022-12-23T03:56:37.808Z,6.75
2022-12-23T03:59:22.641Z,6.62
2022-12-23T04:02:07.420Z,7.47
2022-12-23T04:04:42.953Z,8.28
2022-12-23T04:07:24.249Z,8.10
2022-12-23T04:09:55.376Z,8.15
2022-12-23T04:12:27.600Z,7.53
2022-12-23T04:14:57.325Z,6.90
2022-12-23T04:17:26.756Z,7.10
2022-12-23T04:19:57.241Z,7.42
2022-12-23T04:22:26.819Z,8.18
2022-12-23T04:24:56.243Z,8.10
2022-12-23T04:27:25.752Z,7.72
2022-12-23T04:29:55.156Z,7.60
2022-12-23T04:32:24.608Z,7.28
2022-12-23T04:34:54.549Z,7.62
2022-12-23T04:37:24.058Z,7.55
2022-12-23T04:39:53.484Z,7.87
2022-12-23T04:42:23.716Z,7.65
2022-12-23T04:44:53.239Z,7.40
2022-12-23T04:47:22.642Z,7.40
2022-12-23T04:49:52.123Z,7.17
2022-12-23T04:52:22.333Z,7.47
2022-12-23T04:54:51.775Z,7.20
2022-12-23T04:57:21.301Z,7.58
2022-12-23T04:59:51.070Z,7.22
2022-12-23T05:02:20.597Z,8.00
2022-12-23T05:04:50.933Z,7.58
2022-12-23T05:07:20.523Z,7.00
2022-12-23T05:09:50.021Z,7.05
2022-12-23T05:12:19.455Z,6.92
2022-12-23T05:14:48.871Z,7.12
2022-12-23T05:17:18.510Z,7.72
2022-12-23T05:19:49.099Z,8.15
2022-12-23T05:22:18.520Z,7.33
2022-12-23T05:24:49.488Z,7.35
2022-12-23T05:27:18.921Z,6.72
2022-12-23T05:29:48.337Z,6.65
2022-12-23T05:32:17.834Z,6.75
2022-12-23T05:34:47.273Z,7.22
2022-12-23T05:37:16.712Z,7.12
2022-12-23T05:39:46.466Z,6.63
2022-12-23T05:42:17.594Z,6.12
2022-12-23T05:44:47.639Z,6.95
2022-12-23T05:47:17.055Z,6.75
2022-12-23T05:49:46.504Z,7.20
2022-12-23T05:52:16.640Z,6.08
2022-12-23T05:54:46.062Z,7.27
2022-12-23T05:57:16.065Z,6.97
2022-12-23T05:59:45.517Z,6.65
2022-12-23T06:02:15.216Z,7.30
2022-12-23T06:04:44.889Z,6.17
2022-12-23T06:07:14.312Z,5.95
2022-12-23T06:09:43.822Z,6.67
2022-12-23T06:12:13.288Z,7.20
2022-12-23T06:14:42.930Z,6.90
2022-12-23T06:17:12.344Z,6.28
2022-12-23T06:19:42.103Z,6.27
2022-12-23T06:22:11.620Z,7.10
2022-12-23T06:24:41.132Z,6.13
2022-12-23T06:27:11.142Z,6.25
2022-12-23T06:29:40.641Z,6.03
2022-12-23T06:32:10.356Z,6.17
2022-12-23T06:34:40.449Z,5.95
2022-12-23T06:37:09.868Z,5.40
2022-12-23T06:39:39.305Z,5.70
2022-12-23T06:42:09.298Z,6.08
2022-12-23T06:44:38.738Z,5.53
2022-12-23T06:47:08.220Z,5.05
2022-12-23T06:49:37.852Z,5.72
2022-12-23T06:52:07.351Z,6.15
2022-12-23T06:54:36.863Z,5.90
2022-12-23T06:57:06.435Z,5.78
2022-12-23T06:59:35.862Z,5.53
2022-12-23T07:02:05.934Z,6.50
2022-12-23T07:04:35.688Z,6.45
2022-12-23T07:07:05.119Z,6.72
2022-12-23T07:09:34.559Z,6.42
2022-12-23T07:12:05.046Z,6.87
2022-12-23T07:14:34.481Z,6.00
2022-12-23T07:17:04.024Z,6.05
2022-12-23T07:19:34.890Z,5.65
2022-12-23T07:22:04.955Z,6.58
2022-12-23T07:24:34.609Z,6.33
2022-12-23T07:27:04.208Z,6.45
2022-12-23T07:29:33.647Z,6.92
2022-12-23T07:32:04.522Z,6.30
2022-12-23T07:34:34.324Z,6.30
2022-12-23T07:37:03.795Z,6.12
2022-12-23T07:39:34.809Z,5.86
2022-12-23T07:42:33.808Z,5.95
2022-12-23T07:44:35.372Z,5.97
2022-12-23T07:47:04.805Z,5.47
2022-12-23T07:49:34.305Z,6.20
2022-12-23T07:52:03.869Z,5.92
2022-12-23T07:54:33.530Z,7.25
2022-12-23T07:57:02.975Z,6.95
2022-12-23T07:59:33.056Z,6.53
2022-12-23T08:02:02.684Z,7.17
2022-12-23T08:04:32.415Z,6.87
2022-12-23T08:07:01.892Z,6.95
2022-12-23T08:09:31.325Z,6.80
2022-12-23T08:12:00.793Z,5.58
2022-12-23T08:14:30.230Z,5.95
2022-12-23T08:16:59.763Z,5.87
2022-12-23T08:19:29.247Z,6.12
2022-12-23T08:21:58.685Z,5.70
2022-12-23T08:24:28.117Z,5.95
2022-12-23T08:26:58.849Z,5.70
2022-12-23T08:29:32.602Z,5.50
2022-12-23T08:31:59.497Z,5.22
2022-12-23T08:34:28.922Z,6.55
2022-12-23T08:36:58.439Z,5.30
2022-12-23T08:39:28.820Z,5.67
2022-12-23T08:41:58.254Z,5.45
2022-12-23T08:44:28.300Z,5.90
2022-12-23T08:46:58.038Z,5.10
2022-12-23T08:49:27.469Z,5.45
2022-12-23T08:51:57.108Z,5.75
2022-12-23T08:54:27.376Z,5.42
2022-12-23T08:56:56.961Z,5.15
2022-12-23T08:59:26.392Z,5.97
2022-12-23T09:01:56.766Z,5.85
2022-12-23T09:04:26.749Z,5.15
2022-12-23T09:06:56.199Z,6.00
2022-12-23T09:09:25.609Z,5.40
2022-12-23T09:11:55.220Z,5.40
2022-12-23T09:14:24.842Z,5.87
2022-12-23T09:16:54.339Z,5.42
2022-12-23T09:19:24.221Z,5.05
2022-12-23T09:21:53.648Z,5.05
2022-12-23T09:24:23.094Z,5.50
2022-12-23T09:26:54.090Z,5.00
2022-12-23T09:29:24.158Z,5.42
2022-12-23T09:31:53.652Z,5.08
2022-12-23T09:34:23.221Z,5.30
2022-12-23T09:36:55.455Z,5.23
2022-12-23T09:39:24.716Z,4.92
2022-12-23T09:42:19.909Z,4.70
2022-12-23T09:45:01.207Z,4.58
2022-12-23T09:47:33.589Z,4.60
2022-12-23T09:50:07.010Z,4.70
2022-12-23T09:53:00.270Z,4.03
2022-12-23T10:00:36.297Z,4.58
2022-12-23T10:03:18.172Z,3.80
2022-12-23T10:06:10.305Z,3.90
2022-12-23T10:08:49.435Z,3.90
2022-12-23T10:11:40.845Z,4.10
2022-12-23T10:14:22.843Z,4.70
2022-12-23T10:17:15.262Z,4.57
2022-12-23T10:19:51.616Z,4.10
2022-12-23T10:22:46.478Z,4.40
2022-12-23T10:25:25.736Z,4.20
2022-12-23T10:28:15.345Z,4.35
2022-12-23T10:31:39.688Z,4.55
2022-12-23T10:34:09.239Z,3.80
2022-12-23T10:39:44.703Z,3.58
2022-12-23T10:42:38.594Z,3.60
2022-12-23T10:45:27.273Z,3.80
2022-12-23T10:48:24.725Z,3.70
2022-12-23T10:51:13.637Z,3.62
2022-12-23T10:54:01.535Z,3.90
2022-12-23T10:56:44.793Z,4.43
2022-12-23T10:59:31.556Z,4.67
2022-12-23T11:02:23.096Z,4.28
2022-12-23T11:05:06.673Z,4.97
2022-12-23T11:07:50.108Z,4.70
2022-12-23T11:10:40.229Z,4.95
2022-12-23T11:15:41.606Z,4.40
2022-12-23T11:18:17.245Z,5.07
2022-12-23T11:20:49.473Z,5.30
2022-12-23T11:23:31.033Z,5.17
2022-12-23T11:26:08.715Z,6.05
2022-12-23T11:28:50.668Z,5.30
2022-12-23T11:31:29.032Z,4.77
2022-12-23T11:34:04.100Z,4.30
2022-12-23T11:36:35.005Z,4.37
2022-12-23T11:39:22.615Z,4.33
2022-12-23T11:41:55.165Z,5.00
2022-12-23T11:44:43.402Z,4.22
2022-12-23T11:47:25.229Z,4.05
2022-12-23T11:49:57.443Z,3.30
2022-12-23T11:52:30.261Z,4.00
2022-12-23T11:55:05.893Z,4.05
2022-12-23T11:57:47.504Z,4.10
2022-12-23T12:00:24.514Z,3.60
2022-12-23T12:03:03.307Z,3.62
2022-12-23T12:05:42.512Z,3.55
2022-12-23T12:08:14.839Z,4.05
2022-12-23T12:10:45.010Z,3.65
2022-12-23T12:13:32.688Z,3.95
2022-12-23T12:16:22.437Z,4.08
2022-12-23T12:18:55.852Z,3.50
2022-12-23T12:21:28.483Z,4.35
2022-12-23T12:24:19.361Z,3.58
2022-12-23T12:26:52.609Z,3.50
2022-12-23T12:29:46.191Z,4.15
2022-12-23T12:32:31.214Z,3.72
2022-12-23T12:35:03.714Z,3.77
2022-12-23T12:37:52.728Z,3.60
2022-12-23T12:40:31.763Z,3.37
2022-12-23T12:43:07.320Z,3.37
2022-12-23T12:46:02.449Z,3.85
2022-12-23T12:48:41.797Z,3.52
2022-12-23T12:51:23.126Z,4.10
2022-12-23T12:54:04.703Z,3.83
2022-12-23T12:56:44.622Z,3.77
2022-12-23T12:59:23.232Z,4.03
2022-12-23T13:02:05.407Z,3.90
2022-12-23T13:04:49.649Z,4.83
2022-12-23T13:07:28.191Z,4.28
2022-12-23T13:10:07.611Z,4.72
2022-12-23T13:12:51.691Z,4.87
2022-12-23T13:15:36.760Z,4.22
2022-12-23T13:18:21.628Z,4.10
2022-12-23T13:21:07.200Z,4.60
2022-12-23T13:24:04.384Z,4.67
2022-12-23T13:26:43.248Z,4.60
2022-12-23T13:29:32.420Z,4.65
2022-12-23T13:32:19.865Z,5.00
2022-12-23T13:35:10.936Z,4.83
2022-12-23T13:37:58.534Z,5.25
2022-12-23T13:40:50.276Z,4.42
2022-12-23T13:43:23.072Z,4.78
2022-12-23T13:45:55.562Z,4.55
2022-12-23T13:48:43.604Z,3.75
2022-12-23T13:51:18.828Z,4.15
2022-12-23T13:53:51.617Z,3.87
2022-12-23T13:56:49.187Z,3.70
2022-12-23T13:59:19.107Z,3.80
2022-12-23T14:01:52.708Z,3.20
2022-12-23T14:04:37.455Z,3.58
2022-12-23T14:07:09.968Z,4.58
2022-12-23T14:09:41.257Z,4.08
2022-12-23T14:12:14.172Z,3.60
2022-12-23T14:14:47.124Z,4.12
2022-12-23T14:19:58.801Z,4.37
2022-12-23T14:22:59.857Z,3.80
2022-12-23T14:25:53.328Z,3.60
2022-12-23T14:28:37.943Z,4.20
2022-12-23T14:31:09.319Z,3.52
2022-12-23T14:33:38.945Z,4.10
2022-12-23T14:36:28.899Z,3.55
2022-12-23T14:39:16.331Z,3.20
2022-12-23T14:42:01.719Z,3.85
2022-12-23T14:44:38.552Z,3.40
2022-12-23T14:47:40.607Z,3.37
2022-12-23T14:50:37.026Z,3.40
2022-12-23T14:53:11.402Z,3.00
2022-12-23T14:55:42.577Z,3.47
2022-12-23T14:58:21.547Z,4.12
2022-12-23T15:00:53.721Z,2.87
2022-12-23T15:03:24.819Z,3.63
2022-12-23T15:05:56.198Z,3.35
2022-12-23T15:08:43.588Z,3.62
2022-12-23T15:11:28.926Z,3.25
2022-12-23T15:14:01.801Z,3.50
2022-12-23T15:16:35.476Z,3.98
2022-12-23T15:19:26.228Z,4.13
2022-12-23T15:22:22.107Z,4.40
2022-12-23T15:24:44.943Z,4.34
2022-12-23T15:27:28.786Z,3.70
2022-12-23T15:29:54.527Z,4.17
2022-12-23T15:32:25.887Z,4.17
2022-12-23T15:34:58.404Z,3.83
2022-12-23T15:37:32.399Z,4.10
2022-12-23T15:40:12.047Z,3.83
2022-12-23T15:42:35.680Z,3.83
2022-12-23T15:45:26.433Z,3.87
2022-12-23T15:47:57.417Z,4.17
2022-12-23T15:50:28.513Z,3.92
2022-12-23T15:53:01.245Z,3.60
2022-12-23T15:55:34.024Z,3.37
2022-12-23T15:58:05.213Z,5.33
2022-12-23T16:00:43.840Z,5.35
2022-12-23T16:03:25.165Z,7.05
2022-12-23T16:05:54.962Z,5.83
2022-12-23T16:08:29.617Z,6.55
2022-12-23T16:11:06.920Z,6.10
2022-12-23T16:13:41.592Z,7.40
2022-12-23T16:16:21.114Z,8.20
2022-12-23T16:18:51.648Z,7.70
2022-12-23T16:21:23.817Z,6.65
2022-12-23T16:23:54.500Z,6.50
2022-12-23T16:26:25.013Z,6.37
2022-12-23T16:28:57.489Z,6.67
2022-12-23T16:31:27.744Z,6.65
2022-12-23T16:33:59.392Z,5.90
2022-12-23T16:36:32.247Z,6.87
2022-12-23T16:39:16.625Z,6.72
2022-12-23T16:41:46.514Z,7.72
2022-12-23T16:44:16.494Z,9.48
2022-12-23T16:46:48.867Z,7.58
2022-12-23T16:51:54.550Z,7.37
2022-12-23T16:54:24.450Z,7.20
2022-12-23T16:56:55.733Z,7.33
2022-12-23T16:59:26.047Z,8.45
2022-12-23T17:02:02.936Z,9.45
2022-12-23T17:04:27.032Z,11.57
2022-12-23T17:06:56.633Z,10.72
2022-12-23T17:09:26.139Z,15.28
2022-12-23T17:11:56.620Z,13.40
2022-12-23T17:14:27.597Z,10.82
2022-12-23T17:16:58.374Z,11.60
2022-12-23T17:19:29.015Z,12.05
2022-12-23T17:22:04.485Z,12.23
2022-12-23T17:24:33.972Z,13.13
2022-12-23T17:27:17.643Z,13.10
2022-12-23T17:29:48.171Z,12.55
2022-12-23T17:32:19.588Z,12.73
2022-12-23T17:34:49.653Z,13.28
2022-12-23T17:37:21.687Z,12.00
2022-12-23T17:39:51.409Z,11.90
2022-12-23T17:42:26.041Z,12.85
2022-12-23T17:44:55.172Z,13.80
2022-12-23T17:47:24.613Z,16.97
2022-12-23T17:49:54.089Z,11.60
2022-12-23T17:52:25.570Z,12.68
2022-12-23T17:54:56.170Z,14.20
2022-12-23T17:57:28.043Z,25.60
2022-12-23T17:59:57.549Z,13.93
2022-12-23T18:02:35.691Z,14.50
2022-12-23T18:05:17.547Z,12.33
2022-12-23T18:07:47.149Z,13.75
2022-12-23T18:10:22.027Z,19.07
2022-12-23T18:12:55.014Z,18.80
2022-12-23T18:15:27.573Z,14.05
2022-12-23T18:17:57.854Z,14.00
2022-12-23T18:20:27.906Z,13.03
2022-12-23T18:22:59.710Z,12.98
2022-12-23T18:25:29.269Z,13.67
2022-12-23T18:28:02.186Z,13.15
2022-12-23T18:30:31.643Z,12.93
2022-12-23T18:33:01.062Z,12.30
2022-12-23T18:35:33.421Z,11.22
2022-12-23T18:38:02.987Z,11.48
2022-12-23T18:40:33.152Z,13.28
2022-12-23T18:43:03.285Z,14.65
2022-12-23T18:45:38.805Z,14.80
2022-12-23T18:48:10.660Z,14.75
2022-12-23T18:50:41.883Z,14.30
2022-12-23T18:53:24.768Z,14.03
2022-12-23T18:55:54.819Z,14.20
2022-12-23T18:58:25.212Z,13.58
2022-12-23T19:00:55.070Z,14.80
2022-12-23T19:03:30.020Z,15.32
2022-12-23T19:06:02.861Z,14.03
2022-12-23T19:08:32.569Z,15.05
2022-12-23T19:11:03.213Z,15.05
2022-12-23T19:13:33.638Z,15.40
2022-12-23T19:16:03.513Z,15.90
2022-12-23T19:18:33.060Z,14.30
2022-12-23T19:21:04.868Z,14.45
2022-12-23T19:23:34.361Z,14.03
2022-12-23T19:26:05.429Z,14.45
2022-12-23T19:28:38.689Z,13.50
2022-12-23T19:31:13.576Z,13.78
2022-12-23T19:33:46.136Z,15.20
2022-12-23T19:36:23.084Z,23.70
2022-12-23T19:38:53.136Z,30.68
2022-12-23T19:41:22.572Z,34.63
2022-12-23T19:43:52.000Z,51.33
2022-12-23T19:46:22.244Z,43.48
2022-12-23T19:48:56.524Z,38.37
2022-12-23T19:51:26.002Z,32.55
2022-12-23T19:53:55.442Z,29.45
2022-12-23T19:56:27.045Z,26.05
2022-12-23T19:58:58.304Z,23.62
2022-12-23T20:01:28.705Z,23.12
2022-12-23T20:03:58.279Z,22.40
2022-12-23T20:06:30.720Z,22.10
2022-12-23T20:09:02.246Z,22.98
2022-12-23T20:11:37.367Z,31.00
2022-12-23T20:14:08.639Z,29.40
2022-12-23T20:16:39.587Z,31.30
2022-12-23T20:19:09.204Z,28.10
2022-12-23T20:21:39.686Z,28.75
2022-12-23T20:24:09.493Z,27.62
2022-12-23T20:26:39.411Z,26.82
2022-12-23T20:29:10.688Z,26.70
2022-12-23T20:31:41.331Z,25.50
2022-12-23T20:34:13.937Z,23.50
2022-12-23T20:36:43.512Z,23.25
2022-12-23T20:39:16.697Z,22.27
2022-12-23T20:41:46.277Z,22.62
2022-12-23T20:46:47.171Z,26.57
2022-12-23T20:49:17.155Z,26.40
2022-12-23T20:51:48.170Z,24.70
2022-12-23T20:54:17.641Z,25.68
2022-12-23T20:56:47.135Z,26.12
2022-12-23T20:59:17.492Z,27.80
2022-12-23T21:01:46.952Z,27.75
2022-12-23T21:04:18.170Z,25.20
2022-12-23T21:06:47.770Z,23.80
2022-12-23T21:09:18.545Z,24.30
2022-12-23T21:11:48.996Z,23.70
2022-12-23T21:14:18.647Z,24.77
2022-12-23T21:16:48.366Z,25.52
2022-12-23T21:19:21.411Z,24.37
2022-12-23T21:21:53.283Z,26.23
2022-12-23T21:24:22.711Z,24.57
2022-12-23T21:26:56.413Z,24.52
2022-12-23T21:29:24.573Z,23.12
2022-12-23T21:31:55.437Z,23.92
2022-12-23T21:34:25.332Z,23.47
2022-12-23T21:36:54.828Z,23.97
2022-12-23T21:39:24.337Z,24.07
2022-12-23T21:41:54.264Z,23.85
2022-12-23T21:44:24.104Z,23.85
2022-12-23T21:46:53.556Z,25.70
2022-12-23T21:49:23.209Z,25.55
2022-12-23T21:51:52.682Z,29.73
2022-12-23T21:54:22.182Z,30.80
2022-12-23T21:56:51.613Z,26.75
2022-12-23T21:59:21.240Z,25.37
2022-12-23T22:01:51.349Z,26.02
2022-12-23T22:04:20.854Z,24.95
2022-12-23T22:06:50.697Z,26.93
2022-12-23T22:09:21.033Z,26.73
2022-12-23T22:11:50.588Z,26.73
2022-12-23T22:14:21.376Z,29.42
2022-12-23T22:16:50.846Z,28.07
2022-12-23T22:19:20.323Z,30.68
2022-12-23T22:21:49.844Z,30.08
2022-12-23T22:24:19.315Z,28.45
2022-12-23T22:26:48.971Z,27.87
2022-12-23T22:29:18.956Z,29.35
2022-12-23T22:31:50.666Z,26.65
2022-12-23T22:34:23.206Z,27.53
2022-12-23T22:36:52.704Z,27.13
2022-12-23T22:39:22.719Z,27.45
2022-12-23T22:41:53.344Z,28.65
2022-12-23T22:44:22.851Z,26.05
2022-12-23T22:46:52.381Z,24.50
2022-12-23T22:49:21.999Z,25.57
2022-12-23T22:51:51.556Z,26.52
2022-12-23T22:54:21.001Z,25.82
2022-12-23T22:56:50.742Z,26.25
2022-12-23T22:59:25.792Z,27.05
2022-12-23T23:01:56.367Z,26.25
2022-12-23T23:04:26.261Z,27.20
2022-12-23T23:06:55.770Z,24.53
2022-12-23T23:09:25.692Z,25.80
2022-12-23T23:11:55.205Z,26.12
2022-12-23T23:14:24.711Z,25.57
2022-12-23T23:16:54.707Z,24.57
2022-12-23T23:19:24.190Z,25.95
2022-12-23T23:21:54.651Z,26.30
2022-12-23T23:24:30.939Z,30.68
2022-12-23T23:26:55.498Z,29.23
2022-12-23T23:29:25.069Z,27.50
2022-12-23T23:31:54.566Z,28.20
2022-12-23T23:34:24.056Z,27.10
2022-12-23T23:36:55.417Z,27.57
2022-12-23T23:39:24.898Z,26.27
2022-12-23T23:41:54.405Z,28.90
2022-12-23T23:44:24.477Z,26.65
2022-12-23T23:46:53.922Z,27.10
2022-12-23T23:49:23.533Z,24.67
2022-12-23T23:51:52.995Z,25.93
2022-12-23T23:54:22.486Z,25.05
2022-12-23T23:56:51.929Z,24.80
2022-12-23T23:59:21.392Z,25.15
